Северо-западная Россия

РегЦ Санкт-Петербург

Региональный Центр Единой Системы Организации Воздушного Движения (РегЦ ЕС ОрВД) Санкт-Петербург является структурным подразделением VATRUS.

В зону ответственности центра в сети VATSIM входит воздушное пространство над территориями Ленинградской, Новгородской, Псковской, Вологодской области, Мурманской, Архангельской областями, а так же Республики Карелия и Коми, Ненецкого АО.

Лого Северо-западная Россия
Контакты

FSS региона
Обозначение
RU-NWC_FSS
Позывной
Северо-Запад Контроль
Частота
135.620
Примечание
Top-down
Инструкторы региона
Akhmadjon Saidov (Instructor)
Alexandr Vaganov (Instructor)
Alexey Kaznakov (Instructor)
Dmitry Bugaychuk (Instructor)
Ekaterina Romanova (Instructor)
Maksim Otto * (Controller)
Maxim Demidov * (Controller)
Nikita Assorov * (Unknown)
Oleg Alov * (Controller)
Stanley Yorke * (Controller)
Vadim Drachev (Instructor)
Viktor Ivanov (Instructor)
Yury Koryagin (Instructor)
Включает в себя

РПИ Калининград
РПИ Санкт-Петербург

Диспетчеры региона

Диспетчер Рейтинг Допуски *
Akhmadjon Saidov Instructor ULLL_CTR
Aleksandr Manko Controller ULLL_CTR
Aleksandr Ovodenko Controller ULLL_CTR , UMKK_CTR
Alexandr Vaganov Instructor ULLL_CTR
Alexey Dobronravov Instructor UMKK_CTR
Alexey Zimin Senior Controller ULLL_CTR
Dmitry Bugaychuk Instructor ULLL_CTR , UMKK_CTR
Ekaterina Romanova Instructor ULLL_CTR , UMKK_CTR
Maksim Otto Controller ULLL_CTR , UMKK_CTR
Maxim Demidov Controller ULLL_CTR
Mihail Kolesnik Unknown ULLL_CTR
Mikhail Satsik Controller ULLL_CTR , ULLL_2_APP, ULLL_1_APP, ULLL_APP
Nikita Assorov Instructor UMKK_CTR
Nikita Voytko Controller ULLL_CTR
Oleg Alov Controller ULLL_CTR , UMKK_CTR
Robert Farber Controller ULLL_CTR
Serafim Bedershtet Controller ULLL_CTR
Stanley Yorke Controller ULLL_CTR , UMKK_CTR
Vadim Drachev Instructor ULLL_CTR
Viktor Ivanov Instructor ULLL_CTR , UMKK_CTR
Vladimir Anisimov Senior Controller ULLL_CTR
Yan Stetsenko Controller ULLL_CTR
Aleksandr Mirtov Student 2 ULMM_TWR, ULLI_3_TWR, ULLI_2_TWR, ULLI_1_TWR, ULLI_TWR, UMKK_TWR
Alexander Mikhin Controller ULLI_3_TWR, ULLI_TWR, ULLI_1_TWR, ULLI_2_TWR
Alexandr Sosnovsky Senior Student ULAA_APP, ULLL_2_APP, ULLL_1_APP, ULLL_APP
Andrey Kashunin Student ULLI_GND
Andrey Mironov Student ULLI_GND, ULLI_3_TWR*, ULLI_2_TWR*, ULLI_1_TWR*, ULLI_TWR*
Andrey Tarasov Student 2 ULLI_3_TWR, ULLI_2_TWR, ULLI_1_TWR, ULLI_TWR
Andrey Volanskiy Student 2 ULLI_3_TWR, ULLI_TWR, ULLI_1_TWR, ULLI_2_TWR
Arseny Sitnikov Student 2 ULLI_1_TWR, ULLI_TWR, ULLI_3_TWR, ULLI_2_TWR
Artem Badalov Senior Student ULLL_1_APP, ULLL_2_APP, ULLL_APP
Artur Mitskus Student 2 ULLI_GND, UMKK_TWR
David Markarian Student 2 ULLI_3_TWR, ULLI_2_TWR, ULLI_1_TWR, ULLI_TWR
Denis Zhmurenko Student ULLI_3_TWR*, ULLI_GND, ULLI_TWR*, ULLI_1_TWR*, ULLI_2_TWR*
Dmitrii Ermakov Student 2 ULLI_3_TWR, ULLI_2_TWR, ULLI_1_TWR, ULLI_TWR
Dmitry Berezin Student 2 ULLI_2_TWR, ULLI_3_TWR, ULLI_1_TWR, ULLI_TWR
Evgeny Zuev Senior Student ULLI_GND
Grigoriy Novikov Student 2 ULMM_TWR, ULLI_3_TWR, ULLI_2_TWR, ULLI_1_TWR, ULAA_TWR, ULLI_TWR, UMKK_TWR
Ilya Uvarov Student UMKK_TWR*
Ivan Chumakov Student 2 ULLI_3_TWR, ULLI_2_TWR, ULLI_1_TWR, ULLI_TWR, UMKK_TWR
Nikita Ovsyannikov Student 2 ULLI_TWR, UUYY_TWR!!!, ULLI_1_TWR, ULLI_2_TWR, ULLI_3_TWR, ULMM_TWR, UMKK_TWR
Nikita Smirnov Student ULLI_GND
Nikita Zikeev Senior Student UMKK_TWR
Pavel Gavrilov Senior Student ULMM_R_APP, ULLL_1_APP, ULLL_2_APP, ULLL_APP, UMKK_APP
Pavel Popov Student ULLI_GND
Pavel Romanov Student 2 ULLI_3_TWR, ULLI_2_TWR, ULLI_1_TWR, ULLI_TWR, ULAA_TWR
Pavel Sergienko Student 2 ULLI_R_APP
Sasha Klyucharev Student 2 ULLI_2_TWR, ULLI_3_TWR, ULLI_1_TWR, ULLI_TWR
Sofya Belyaeva Student 2 ULLI_1_TWR, ULLI_2_TWR, ULLI_3_TWR, ULLI_TWR
Vyacheslav Varlamov Student ULLI_GND
Yakov Polushkin Student 2 ULLI_2_TWR, ULLI_TWR, ULLI_1_TWR, ULLI_3_TWR, UMKK_TWR
Yan Sheyfer Senior Student ULLI_3_TWR, ULLI_TWR, ULLI_1_TWR, ULLI_2_TWR
Yury Pushkaryov Senior Student ULLL_APP, ULLL_1_APP, ULLL_2_APP, ULAA_APP

Аэропорты региона

ICAO Город Название Погода
ULLI Санкт-Петербург Пулково ULLI 020700Z 15004MPS 120V180 9999 OVC010 02/00 Q1027 R88/090060 NOSIG
ULAA Архангельск Архангельск ULAA 020700Z 28005MPS 240V300 9999 OVC017 M00/M03 Q1025 R26/910560 NOSIG RMK QFE767/1023
UMKK Калининград Калининград UMKK 020700Z 14006MPS CAVOK 06/03 Q1014 R24/CLRD95 NOSIG RMK QFE759/1012
ULKK Котлас Котлас
XLLV Левашово Левашово
ULMM Мурманск Мурманск ULMM 020700Z 25005MPS 220V290 9999 BKN017 02/M01 Q1014 R13/250048 NOSIG RMK QFE754
ULAM Нарьян-Мар Нарьян-Мар
ULPB Петрозаводск Бесовец ULPB 020700Z 25003MPS 210V280 9999 OVC008 00/M01 Q1028 R19/09//85 NOSIG RMK QBB260 QFE767/1023
ULOO Псков Псков ULOO 020700Z 14004MPS 120V180 9999 OVC009 03/01 Q1025 R19/090050 NOSIG RMK QFE765
UUYY Сыктывкар Сыктывкар UUYY 020700Z 24004MPS 9999 OVC010 M01/M03 Q1029 R18/19//55 NOSIG RMK QFE763/1017
ULWC Череповец Череповец ULWC 020700Z 23002MPS 9999 OVC019 01/M02 Q1030 R21/290065 NOSIG RMK QFE762/1017